PILOTS ONLINE: 493    ATC ONLINE: 79

KHYA - Barnstable Municipal Boardman Polando Field

Location

IATA HYA
City Hyannis
Country  United States
Latitude 41° 40' 9" N
Longitude 70° 16' 49" W
Elevation 54 ft
Type Medium Airport

Runways

06/24 5425 ft / 150 ft
15/33 5252 ft / 150 ft

Weather

METAR
2014/07/30 14:56
KHYA 301456Z 24007KT 10SM A3000 RMK AO2 SLPNO 6//// 53004 PNO $
TAF
2014/07/30 12:24
TAF KHYA 301120Z 3012/3112 VRB03KT P6SM SCT250

Outbound flights

Inbound flights